Sunrise, Wyoming
Current Conditions -  °F | °C
As of 7:15 PM on Sunday 25 Jan 2015 (Local Time) from KGUR Reporting Station
Clear Clear  
Wind Chill: 42°   Ceiling: Unl
Heat Index: 45°   Visibility: 10mi
Dew Point: 35°   Wind: 6mph
Humidity: 67%   Direction: 340°NNW
Pressure: 30.13"   Gusts: NA
Location:  42.3847°N, 104.796°W
Report Text: KGUR 260215Z AUTO 34005KT 10SM CLR 07/01 A3013 RMK AO2 T00720014
Loading
Personal Weather Stations






























Interactive Weather Map New forecast layout! Learn more

10-Day Weather Forecast

Advertisements
Track Severe Weather on mobile